createdAt,value
2023-01-01T00:00:48.068Z,0.00
2023-01-01T00:01:48.895Z,0.00
2023-01-01T00:02:49.709Z,0.00
2023-01-01T00:03:50.601Z,0.00
2023-01-01T00:04:51.456Z,0.00
2023-01-01T00:05:52.312Z,0.00
2023-01-01T00:06:53.167Z,0.00
2023-01-01T00:07:57.043Z,0.00
2023-01-01T00:08:55.755Z,0.00
2023-01-01T00:09:55.613Z,0.00
2023-01-01T00:10:56.483Z,0.00
2023-01-01T00:11:57.304Z,0.00
2023-01-01T00:12:58.163Z,0.00
2023-01-01T00:13:59.006Z,0.00
2023-01-01T00:14:59.883Z,0.00
2023-01-01T00:16:00.721Z,0.00
2023-01-01T00:17:01.571Z,0.00
2023-01-01T00:18:02.422Z,0.00
2023-01-01T00:19:03.286Z,0.00
2023-01-01T00:20:04.144Z,0.00
2023-01-01T00:21:04.993Z,0.00
2023-01-01T00:22:43.753Z,0.00
2023-01-01T00:23:07.616Z,0.00
2023-01-01T00:24:07.448Z,0.00
2023-01-01T00:25:08.308Z,0.00
2023-01-01T00:26:09.181Z,0.00
2023-01-01T00:27:09.991Z,0.00
2023-01-01T00:28:10.847Z,0.00
2023-01-01T00:29:11.701Z,0.00
2023-01-01T00:30:13.051Z,0.00
2023-01-01T00:31:13.404Z,0.00
2023-01-01T00:32:17.682Z,0.00
2023-01-01T00:33:16.015Z,0.00
2023-01-01T00:34:15.868Z,0.00
2023-01-01T00:35:16.735Z,0.00
2023-01-01T00:36:17.580Z,0.00
2023-01-01T00:37:18.500Z,0.00
2023-01-01T00:38:19.322Z,0.00
2023-01-01T00:39:20.143Z,0.00
2023-01-01T00:40:21.025Z,0.00
2023-01-01T00:41:21.881Z,0.00
2023-01-01T00:42:22.718Z,0.00
2023-01-01T00:43:23.576Z,0.00
2023-01-01T00:44:24.445Z,0.00
2023-01-01T00:45:25.288Z,0.00
2023-01-01T00:46:26.191Z,0.00
2023-01-01T00:47:26.993Z,0.00
2023-01-01T00:48:27.845Z,0.00
2023-01-01T00:49:28.698Z,0.00
2023-01-01T00:50:29.570Z,0.00
2023-01-01T00:51:36.581Z,0.00
2023-01-01T00:52:32.160Z,0.00
2023-01-01T00:53:32.047Z,0.00
2023-01-01T00:54:32.871Z,0.00
2023-01-01T00:55:33.729Z,0.00
2023-01-01T00:56:34.601Z,0.00
2023-01-01T00:57:35.379Z,0.00
2023-01-01T00:58:36.232Z,0.00
2023-01-01T00:59:37.077Z,0.00
2023-01-01T01:00:37.944Z,0.00
2023-01-01T01:01:38.873Z,0.00
2023-01-01T01:02:39.913Z,0.00
2023-01-01T01:03:40.378Z,0.00
2023-01-01T01:04:41.251Z,0.00
2023-01-01T01:05:42.101Z,0.00
2023-01-01T01:06:42.962Z,0.00
2023-01-01T01:07:43.809Z,0.00
2023-01-01T01:08:44.677Z,0.00
2023-01-01T01:09:45.510Z,0.00
2023-01-01T01:10:46.376Z,0.00
2023-01-01T01:11:47.243Z,0.00
2023-01-01T01:12:48.069Z,0.00
2023-01-01T01:13:48.928Z,0.00
2023-01-01T01:14:49.788Z,0.00
2023-01-01T01:15:56.197Z,0.00
2023-01-01T01:16:52.403Z,0.00
2023-01-01T01:17:52.256Z,0.00
2023-01-01T01:18:53.088Z,0.00
2023-01-01T01:19:53.935Z,0.00
2023-01-01T01:20:54.806Z,0.00
2023-01-01T01:21:55.650Z,0.00
2023-01-01T01:22:56.502Z,0.00
2023-01-01T01:23:57.376Z,0.00
2023-01-01T01:24:58.205Z,0.00
2023-01-01T01:25:59.071Z,0.00
2023-01-01T01:26:59.937Z,0.00
2023-01-01T01:28:00.733Z,0.00
2023-01-01T01:29:01.591Z,0.00
2023-01-01T01:30:02.436Z,0.00
2023-01-01T01:31:03.330Z,0.00
2023-01-01T01:32:04.153Z,0.00
2023-01-01T01:33:05.005Z,0.00
2023-01-01T01:34:06.178Z,0.00
2023-01-01T01:35:06.601Z,0.00
2023-01-01T01:36:07.475Z,0.00
2023-01-01T01:37:08.337Z,0.00
2023-01-01T01:38:09.171Z,0.00
2023-01-01T01:39:10.055Z,0.00
2023-01-01T01:40:10.874Z,0.00
2023-01-01T01:41:26.121Z,0.00
2023-01-01T01:42:13.316Z,0.00
2023-01-01T01:43:13.121Z,0.00
2023-01-01T01:44:13.975Z,0.00
2023-01-01T01:45:14.826Z,0.00
2023-01-01T01:46:15.710Z,0.00
2023-01-01T01:47:16.534Z,0.00
2023-01-01T01:48:17.392Z,0.00
2023-01-01T01:49:18.249Z,0.00
2023-01-01T01:50:19.097Z,0.00
2023-01-01T01:51:19.953Z,0.00
2023-01-01T01:52:20.811Z,0.00
2023-01-01T01:53:21.657Z,0.00
2023-01-01T01:54:22.536Z,0.00
2023-01-01T01:55:23.359Z,0.00
2023-01-01T01:56:24.226Z,0.00
2023-01-01T01:57:25.089Z,0.00
2023-01-01T01:58:25.902Z,0.00
2023-01-01T01:59:26.753Z,0.00
2023-01-01T02:00:27.616Z,0.00
2023-01-01T02:01:28.600Z,0.00
2023-01-01T02:02:29.587Z,0.00
2023-01-01T02:03:30.075Z,0.00
2023-01-01T02:04:30.889Z,0.00
2023-01-01T02:05:31.735Z,0.00
2023-01-01T02:06:32.613Z,0.00
2023-01-01T02:07:33.470Z,0.00
2023-01-01T02:08:34.315Z,0.00
2023-01-01T02:09:35.191Z,0.00
2023-01-01T02:10:36.014Z,0.00
2023-01-01T02:11:36.886Z,0.00
2023-01-01T02:12:37.747Z,0.00
2023-01-01T02:13:38.531Z,0.00
2023-01-01T02:14:39.382Z,0.00
2023-01-01T02:15:40.242Z,0.00
2023-01-01T02:16:41.095Z,0.00
2023-01-01T02:17:41.945Z,0.00
2023-01-01T02:18:42.793Z,0.00
2023-01-01T02:19:43.669Z,0.00
2023-01-01T02:20:44.501Z,0.00
2023-01-01T02:21:45.361Z,0.00
2023-01-01T02:22:46.214Z,0.00
2023-01-01T02:23:47.057Z,0.00
2023-01-01T02:24:47.929Z,0.00
2023-01-01T02:25:48.766Z,0.00
2023-01-01T02:26:50.048Z,0.00
2023-01-01T02:27:50.419Z,0.00
2023-01-01T02:28:51.250Z,0.00
2023-01-01T02:29:52.101Z,0.00
2023-01-01T02:30:52.980Z,0.00
2023-01-01T02:31:53.814Z,0.00
2023-01-01T02:32:54.664Z,0.00
2023-01-01T02:33:55.526Z,0.00
2023-01-01T02:34:56.384Z,0.00
2023-01-01T02:35:57.213Z,0.00
2023-01-01T02:36:58.134Z,0.00
2023-01-01T02:37:58.928Z,0.00
2023-01-01T02:38:59.778Z,0.00
2023-01-01T02:40:00.678Z,0.00
2023-01-01T02:41:01.482Z,0.00
2023-01-01T02:42:02.349Z,0.00
2023-01-01T02:43:03.212Z,0.00
2023-01-01T02:45:13.503Z,0.00
2023-01-01T02:47:23.808Z,0.00
2023-01-01T02:48:24.661Z,0.00
2023-01-01T02:49:25.512Z,0.00
2023-01-01T02:50:26.364Z,0.00
2023-01-01T02:51:27.214Z,0.00
2023-01-01T02:52:28.073Z,0.00
2023-01-01T02:53:28.928Z,0.00
2023-01-01T02:54:29.784Z,0.00
2023-01-01T02:55:30.665Z,0.00
2023-01-01T02:56:31.483Z,0.00
2023-01-01T02:57:32.353Z,0.00
2023-01-01T02:58:33.222Z,0.00
2023-01-01T02:59:34.029Z,0.00
2023-01-01T03:00:34.883Z,0.00
2023-01-01T03:01:35.835Z,0.00
2023-01-01T03:02:36.838Z,0.00
2023-01-01T03:03:37.255Z,0.00
2023-01-01T03:04:38.062Z,0.00
2023-01-01T03:05:38.915Z,0.00
2023-01-01T03:06:39.887Z,0.00
2023-01-01T03:07:40.762Z,0.00
2023-01-01T03:08:41.616Z,0.00
2023-01-01T03:09:42.473Z,0.00
2023-01-01T03:10:43.345Z,0.00
2023-01-01T03:11:44.180Z,0.00
2023-01-01T03:12:45.035Z,0.00
2023-01-01T03:13:45.901Z,0.00
2023-01-01T03:14:46.716Z,0.00
2023-01-01T03:15:47.606Z,0.00
2023-01-01T03:16:48.421Z,0.00
2023-01-01T03:17:49.283Z,0.00
2023-01-01T03:18:50.151Z,0.00
2023-01-01T03:19:51.002Z,0.00
2023-01-01T03:20:51.850Z,0.00
2023-01-01T03:21:52.706Z,0.00
2023-01-01T03:22:53.575Z,0.00
2023-01-01T03:23:54.423Z,0.00
2023-01-01T03:24:55.263Z,0.00
2023-01-01T03:25:56.136Z,0.00
2023-01-01T03:26:56.962Z,0.00
2023-01-01T03:27:57.826Z,0.00
2023-01-01T03:28:58.702Z,0.00
2023-01-01T03:29:59.492Z,0.00
2023-01-01T03:31:00.441Z,0.00
2023-01-01T03:32:01.258Z,0.00
2023-01-01T03:33:02.116Z,0.00
2023-01-01T03:34:02.969Z,0.00
2023-01-01T03:35:03.821Z,0.00
2023-01-01T03:36:04.673Z,0.00
2023-01-01T03:37:05.528Z,0.00
2023-01-01T03:38:06.386Z,0.00
2023-01-01T03:39:07.239Z,0.00
2023-01-01T03:40:08.110Z,0.00
2023-01-01T03:41:08.960Z,0.00
2023-01-01T03:42:09.797Z,0.00
2023-01-01T03:43:10.658Z,0.00
2023-01-01T03:44:11.539Z,0.00
2023-01-01T03:45:12.346Z,0.00
2023-01-01T03:46:13.235Z,0.00
2023-01-01T03:47:14.049Z,0.00
2023-01-01T03:48:14.913Z,0.00
2023-01-01T03:49:15.769Z,0.00
2023-01-01T03:50:16.615Z,0.00
2023-01-01T03:51:17.487Z,0.00
2023-01-01T03:52:18.345Z,0.00
2023-01-01T03:53:19.443Z,0.00
2023-01-01T03:54:19.797Z,0.00
2023-01-01T03:55:20.657Z,0.00
2023-01-01T03:56:21.522Z,0.00
2023-01-01T03:57:22.353Z,0.00
2023-01-01T03:58:23.214Z,0.00
2023-01-01T03:59:24.090Z,0.00
2023-01-01T04:00:24.892Z,0.00
2023-01-01T04:01:25.842Z,0.00
2023-01-01T04:02:26.919Z,0.00
2023-01-01T04:03:27.455Z,0.00
2023-01-01T04:04:28.300Z,0.00
2023-01-01T04:05:29.153Z,0.00
2023-01-01T04:06:30.005Z,0.00
2023-01-01T04:07:30.858Z,0.00
2023-01-01T04:08:31.737Z,0.00
2023-01-01T04:09:32.607Z,0.00
2023-01-01T04:10:33.436Z,0.00
2023-01-01T04:11:34.311Z,0.00
2023-01-01T04:12:35.140Z,0.00
2023-01-01T04:13:36.006Z,0.00
2023-01-01T04:14:36.974Z,0.00
2023-01-01T04:15:37.754Z,0.00
2023-01-01T04:16:38.671Z,0.00
2023-01-01T04:17:39.485Z,0.00
2023-01-01T04:18:40.347Z,0.00
2023-01-01T04:19:41.198Z,0.00
2023-01-01T04:20:42.058Z,0.00
2023-01-01T04:21:42.903Z,0.00
2023-01-01T04:22:43.760Z,0.00
2023-01-01T04:23:44.624Z,0.00
2023-01-01T04:24:45.472Z,0.00
2023-01-01T04:25:46.327Z,0.00
2023-01-01T04:26:47.204Z,0.00
2023-01-01T04:27:48.040Z,0.00
2023-01-01T04:28:48.900Z,0.00
2023-01-01T04:29:49.867Z,0.00
2023-01-01T04:31:51.397Z,0.00
2023-01-01T04:32:52.283Z,0.00
2023-01-01T04:33:53.444Z,0.00
2023-01-01T04:34:53.805Z,0.00
2023-01-01T04:35:54.658Z,0.00
2023-01-01T04:36:55.515Z,0.00
2023-01-01T04:37:56.363Z,0.00
2023-01-01T04:38:57.227Z,0.00
2023-01-01T04:39:58.129Z,0.00
2023-01-01T04:40:58.982Z,0.00
2023-01-01T04:41:59.866Z,0.00
2023-01-01T04:43:00.688Z,0.00
2023-01-01T04:44:01.551Z,0.00
2023-01-01T04:45:02.524Z,0.00
2023-01-01T04:46:03.355Z,0.00
2023-01-01T04:47:04.180Z,0.00
2023-01-01T04:48:05.024Z,0.00
2023-01-01T04:49:05.885Z,0.00
2023-01-01T04:50:06.736Z,0.00
2023-01-01T04:51:07.604Z,0.00
2023-01-01T04:52:08.440Z,0.00
2023-01-01T04:53:09.298Z,0.00
2023-01-01T04:54:10.154Z,0.00
2023-01-01T04:55:11.014Z,0.00
2023-01-01T04:56:11.860Z,0.00
2023-01-01T04:57:12.757Z,0.00
2023-01-01T04:58:13.573Z,0.00
2023-01-01T04:59:14.439Z,0.00
2023-01-01T05:00:15.397Z,0.00
2023-01-01T05:01:16.292Z,0.00
2023-01-01T05:02:17.187Z,0.00
2023-01-01T05:03:18.024Z,0.00
2023-01-01T05:04:18.871Z,0.00
2023-01-01T05:05:19.733Z,0.00
2023-01-01T05:06:20.582Z,0.00
2023-01-01T05:07:21.435Z,0.00
2023-01-01T05:08:22.288Z,0.00
2023-01-01T05:09:23.162Z,0.00
2023-01-01T05:10:24.010Z,0.00
2023-01-01T05:11:24.878Z,0.00
2023-01-01T05:12:25.738Z,0.00
2023-01-01T05:13:26.569Z,0.00
2023-01-01T05:14:27.430Z,0.00
2023-01-01T05:15:28.396Z,0.00
2023-01-01T05:16:29.257Z,0.00
2023-01-01T05:17:30.060Z,0.00
2023-01-01T05:18:30.906Z,0.00
2023-01-01T05:19:31.778Z,0.00
2023-01-01T05:20:32.622Z,0.00
2023-01-01T05:21:33.471Z,0.00
2023-01-01T05:22:34.334Z,0.00
2023-01-01T05:23:35.172Z,0.00
2023-01-01T05:24:36.032Z,0.00
2023-01-01T05:25:36.883Z,0.00
2023-01-01T05:26:37.735Z,0.00
2023-01-01T05:27:38.616Z,0.00
2023-01-01T05:28:39.438Z,0.00
2023-01-01T05:29:40.297Z,0.00
2023-01-01T05:30:41.265Z,0.00
2023-01-01T05:31:42.108Z,0.00
2023-01-01T05:32:42.926Z,0.00
2023-01-01T05:33:43.779Z,0.00
2023-01-01T05:34:44.665Z,0.00
2023-01-01T05:35:45.500Z,0.00
2023-01-01T05:36:46.352Z,0.00
2023-01-01T05:37:47.208Z,0.00
2023-01-01T05:38:48.060Z,0.00
2023-01-01T05:39:48.922Z,0.00
2023-01-01T05:40:49.774Z,0.00
2023-01-01T05:41:50.630Z,0.00
2023-01-01T05:42:51.508Z,0.00
2023-01-01T05:43:52.346Z,0.00
2023-01-01T05:44:53.198Z,0.00
2023-01-01T05:45:54.222Z,0.00
2023-01-01T05:46:55.016Z,0.00
2023-01-01T05:47:55.865Z,0.00
2023-01-01T05:48:56.718Z,0.00
2023-01-01T05:49:57.583Z,0.00
2023-01-01T05:50:58.442Z,0.00
2023-01-01T05:51:59.290Z,0.00
2023-01-01T05:53:00.136Z,0.00
2023-01-01T05:54:01.023Z,0.00
2023-01-01T05:55:01.853Z,0.00
2023-01-01T05:56:02.716Z,0.00
2023-01-01T05:57:03.560Z,0.00
2023-01-01T05:58:04.431Z,0.00
2023-01-01T05:59:05.275Z,0.00
2023-01-01T06:00:06.127Z,0.00
2023-01-01T06:01:07.134Z,0.00
2023-01-01T06:02:08.074Z,0.00
2023-01-01T06:03:08.446Z,0.00
2023-01-01T06:04:09.316Z,0.00
2023-01-01T06:05:10.163Z,0.00
2023-01-01T06:06:11.032Z,0.00
2023-01-01T06:07:11.888Z,0.00
2023-01-01T06:08:12.740Z,0.00
2023-01-01T06:09:13.611Z,0.00
2023-01-01T06:10:14.468Z,0.00
2023-01-01T06:11:15.323Z,0.00
2023-01-01T06:12:16.176Z,0.00
2023-01-01T06:13:17.068Z,0.00
2023-01-01T06:14:17.882Z,0.00
2023-01-01T06:15:18.745Z,0.00
2023-01-01T06:16:19.759Z,0.00
2023-01-01T06:17:20.546Z,0.00
2023-01-01T06:18:21.400Z,0.00
2023-01-01T06:19:22.253Z,0.00
2023-01-01T06:20:23.120Z,0.00
2023-01-01T06:21:23.977Z,0.00
2023-01-01T06:22:24.823Z,0.00
2023-01-01T06:23:25.672Z,0.00
2023-01-01T06:24:26.528Z,0.00
2023-01-01T06:25:27.390Z,0.00
2023-01-01T06:26:28.249Z,0.00
2023-01-01T06:27:29.096Z,0.00
2023-01-01T06:28:29.969Z,0.00
2023-01-01T06:29:30.810Z,0.00
2023-01-01T06:30:31.700Z,0.00
2023-01-01T06:31:38.356Z,0.00
2023-01-01T06:32:34.271Z,0.00
2023-01-01T06:33:34.119Z,0.00
2023-01-01T06:34:34.977Z,0.00
2023-01-01T06:35:35.839Z,0.00
2023-01-01T06:36:36.699Z,0.00
2023-01-01T06:37:37.567Z,0.00
2023-01-01T06:38:38.397Z,0.00
2023-01-01T06:39:39.249Z,0.00
2023-01-01T06:40:40.116Z,0.00
2023-01-01T06:41:40.964Z,0.00
2023-01-01T06:42:41.819Z,0.00
2023-01-01T06:43:42.689Z,0.00
2023-01-01T06:44:43.520Z,0.00
2023-01-01T06:45:44.382Z,0.00
2023-01-01T06:46:45.435Z,0.00
2023-01-01T06:47:46.224Z,0.00
2023-01-01T06:48:47.093Z,0.00
2023-01-01T06:49:47.934Z,0.00
2023-01-01T06:50:48.944Z,0.00
2023-01-01T06:51:49.296Z,0.00
2023-01-01T06:52:50.145Z,0.00
2023-01-01T06:53:51.006Z,0.00
2023-01-01T06:54:51.857Z,0.00
2023-01-01T06:55:57.128Z,0.00
2023-01-01T06:56:53.359Z,0.00
2023-01-01T06:57:54.209Z,0.00
2023-01-01T06:58:55.101Z,0.00
2023-01-01T06:59:55.930Z,0.00
2023-01-01T07:00:57.006Z,0.00
2023-01-01T07:01:57.555Z,0.00
2023-01-01T07:02:58.010Z,0.00
2023-01-01T07:03:58.406Z,0.00
2023-01-01T07:04:59.258Z,0.00
2023-01-01T07:06:00.128Z,4.00
2023-01-01T07:07:00.985Z,4.00
2023-01-01T07:08:01.827Z,4.00
2023-01-01T07:09:02.680Z,4.00
2023-01-01T07:10:03.541Z,4.00
2023-01-01T07:11:04.412Z,0.00
2023-01-01T07:12:05.267Z,4.00
2023-01-01T07:13:06.118Z,4.00
2023-01-01T07:14:06.994Z,4.00
2023-01-01T07:15:07.821Z,4.00
2023-01-01T07:16:13.149Z,4.00
2023-01-01T07:17:09.434Z,8.00
2023-01-01T07:18:10.210Z,8.00
2023-01-01T07:19:11.074Z,8.00
2023-01-01T07:20:11.925Z,8.00
2023-01-01T07:21:12.944Z,8.00
2023-01-01T07:22:13.301Z,8.00
2023-01-01T07:23:14.159Z,8.00
2023-01-01T07:24:15.020Z,8.00
2023-01-01T07:25:15.874Z,8.00
2023-01-01T07:26:16.732Z,12.00
2023-01-01T07:27:17.595Z,12.00
2023-01-01T07:28:18.445Z,16.00
2023-01-01T07:29:19.323Z,16.00
2023-01-01T07:30:20.155Z,16.00
2023-01-01T07:31:21.108Z,20.00
2023-01-01T07:32:22.021Z,24.00
2023-01-01T07:33:22.803Z,24.00
2023-01-01T07:34:23.654Z,24.00
2023-01-01T07:35:24.505Z,32.00
2023-01-01T07:36:25.443Z,32.00
2023-01-01T07:37:26.301Z,36.00
2023-01-01T07:38:27.150Z,40.00
2023-01-01T07:39:28.006Z,48.00
2023-01-01T07:40:28.879Z,52.00
2023-01-01T07:41:29.718Z,60.00
2023-01-01T07:42:30.588Z,56.00
2023-01-01T07:43:31.425Z,56.00
2023-01-01T07:44:32.296Z,64.00
2023-01-01T07:45:33.129Z,68.00
2023-01-01T07:46:34.039Z,72.00
2023-01-01T07:47:34.957Z,80.00
2023-01-01T07:48:40.074Z,84.00
2023-01-01T07:49:36.648Z,92.00
2023-01-01T07:50:37.496Z,96.00
2023-01-01T07:51:38.359Z,112.00
2023-01-01T07:52:39.213Z,132.00
2023-01-01T07:53:40.074Z,140.00
2023-01-01T07:54:40.953Z,144.00
2023-01-01T07:55:41.816Z,136.00
2023-01-01T07:56:42.672Z,132.00
2023-01-01T07:57:43.540Z,132.00
2023-01-01T07:58:44.392Z,140.00
2023-01-01T07:59:45.302Z,156.00
2023-01-01T08:00:46.104Z,172.00
2023-01-01T08:01:47.525Z,180.00
2023-01-01T08:02:48.224Z,212.00
2023-01-01T08:03:48.646Z,248.00
2023-01-01T08:04:49.495Z,276.00
2023-01-01T08:05:50.355Z,300.00
2023-01-01T08:06:51.212Z,332.00
2023-01-01T08:07:52.076Z,348.00
2023-01-01T08:08:52.931Z,348.00
2023-01-01T08:09:53.782Z,340.00
2023-01-01T08:10:58.869Z,300.00
2023-01-01T08:11:56.405Z,268.00
2023-01-01T08:12:56.269Z,268.00
2023-01-01T08:13:57.132Z,284.00
2023-01-01T08:14:58.004Z,312.00
2023-01-01T08:15:58.931Z,332.00
2023-01-01T08:16:59.356Z,360.00
2023-01-01T08:18:00.319Z,388.00
2023-01-01T08:19:01.103Z,428.00
2023-01-01T08:20:02.002Z,480.00
2023-01-01T08:21:02.821Z,532.00
2023-01-01T08:22:03.679Z,564.00
2023-01-01T08:23:07.438Z,568.00
2023-01-01T08:24:05.074Z,560.00
2023-01-01T08:25:05.944Z,524.00
2023-01-01T08:26:07.423Z,492.00
2023-01-01T08:27:07.774Z,488.00
2023-01-01T08:28:08.642Z,500.00
2023-01-01T08:29:09.518Z,528.00
2023-01-01T08:30:10.392Z,536.00
2023-01-01T08:31:11.247Z,520.00
2023-01-01T08:32:12.444Z,508.00
2023-01-01T08:33:12.920Z,500.00
2023-01-01T08:34:13.725Z,504.00
2023-01-01T08:35:14.579Z,524.00
2023-01-01T08:36:15.428Z,568.00
2023-01-01T08:37:16.294Z,592.00
2023-01-01T08:38:17.152Z,584.00
2023-01-01T08:39:18.003Z,568.00
2023-01-01T08:40:18.863Z,580.00
2023-01-01T08:41:19.713Z,628.00
2023-01-01T08:42:20.575Z,620.00
2023-01-01T08:43:21.443Z,592.00
2023-01-01T08:44:22.293Z,608.00
2023-01-01T08:45:23.169Z,660.00
2023-01-01T08:46:24.062Z,692.00
2023-01-01T08:47:24.869Z,696.00
2023-01-01T08:48:30.717Z,724.00
2023-01-01T08:49:27.475Z,768.00
2023-01-01T08:50:27.374Z,796.00
2023-01-01T08:51:28.181Z,788.00
2023-01-01T08:52:29.046Z,776.00
2023-01-01T08:53:29.926Z,756.00
2023-01-01T08:54:30.752Z,716.00
2023-01-01T08:55:31.597Z,744.00
2023-01-01T08:56:32.453Z,816.00
2023-01-01T08:57:33.327Z,944.00
2023-01-01T08:58:34.168Z,1168.00
2023-01-01T08:59:35.021Z,1364.00
2023-01-01T09:00:35.910Z,1476.00
2023-01-01T09:01:36.843Z,1496.00
2023-01-01T09:02:38.024Z,1512.00
2023-01-01T09:03:38.801Z,1540.00
2023-01-01T09:04:39.137Z,1628.00
2023-01-01T09:05:39.985Z,1728.00
2023-01-01T09:06:40.848Z,1680.00
2023-01-01T09:07:41.706Z,1504.00
2023-01-01T09:08:42.554Z,1296.00
2023-01-01T09:09:43.407Z,1156.00
2023-01-01T09:10:44.261Z,1044.00
2023-01-01T09:11:45.116Z,964.00
2023-01-01T09:12:46.000Z,980.00
2023-01-01T09:13:46.850Z,1036.00
2023-01-01T09:14:47.704Z,1068.00
2023-01-01T09:15:48.630Z,1080.00
2023-01-01T09:16:49.479Z,1092.00
2023-01-01T09:17:50.313Z,1132.00
2023-01-01T09:18:51.266Z,1192.00
2023-01-01T09:19:52.064Z,1268.00
2023-01-01T09:20:52.924Z,1280.00
2023-01-01T09:21:53.759Z,1224.00
2023-01-01T09:22:54.627Z,1164.00
2023-01-01T09:23:55.476Z,1160.00
2023-01-01T09:24:56.329Z,1188.00
2023-01-01T09:25:57.172Z,1140.00
2023-01-01T09:26:58.031Z,1064.00
2023-01-01T09:27:58.883Z,1048.00
2023-01-01T09:28:59.746Z,1048.00
2023-01-01T09:30:00.596Z,1016.00
2023-01-01T09:31:01.461Z,956.00
2023-01-01T09:32:02.357Z,1060.00
2023-01-01T09:33:03.193Z,1128.00
2023-01-01T09:34:04.145Z,1224.00
2023-01-01T09:35:04.916Z,1344.00
2023-01-01T09:36:05.768Z,1420.00
2023-01-01T09:37:06.623Z,1520.00
2023-01-01T09:38:07.480Z,1520.00
2023-01-01T09:39:08.334Z,1500.00
2023-01-01T09:40:09.186Z,1556.00
2023-01-01T09:41:10.039Z,1660.00
2023-01-01T09:42:10.901Z,1744.00
2023-01-01T09:43:11.940Z,1828.00
2023-01-01T09:44:12.305Z,1896.00
2023-01-01T09:45:13.154Z,1912.00
2023-01-01T09:46:14.061Z,1908.00
2023-01-01T09:47:14.872Z,1852.00
2023-01-01T09:48:15.732Z,1804.00
2023-01-01T09:49:16.696Z,1828.00
2023-01-01T09:50:17.476Z,1868.00
2023-01-01T09:51:18.324Z,1876.00
2023-01-01T09:52:19.176Z,1940.00
2023-01-01T09:53:20.039Z,2008.00
2023-01-01T09:54:20.919Z,2040.00
2023-01-01T09:55:21.776Z,2080.00
2023-01-01T09:56:22.630Z,2136.00
2023-01-01T09:57:23.481Z,2228.00
2023-01-01T09:58:24.345Z,2396.00
2023-01-01T09:59:25.216Z,2904.00
2023-01-01T10:00:26.044Z,3048.00
2023-01-01T10:01:27.096Z,3644.00
2023-01-01T10:02:27.569Z,4360.00
2023-01-01T10:03:28.412Z,4044.00
2023-01-01T10:04:29.475Z,3804.00
2023-01-01T10:05:29.792Z,3320.00
2023-01-01T10:06:30.664Z,3416.00
2023-01-01T10:07:31.532Z,3372.00
2023-01-01T10:08:32.397Z,2864.00
2023-01-01T10:09:33.252Z,2568.00
2023-01-01T10:10:34.123Z,2412.00
2023-01-01T10:11:34.955Z,2180.00
2023-01-01T10:12:35.827Z,1996.00
2023-01-01T10:13:36.683Z,1944.00
2023-01-01T10:14:37.538Z,1956.00
2023-01-01T10:15:38.384Z,1900.00
2023-01-01T10:16:39.291Z,1864.00
2023-01-01T10:17:40.096Z,1884.00
2023-01-01T10:18:40.964Z,1900.00
2023-01-01T10:19:41.921Z,1856.00
2023-01-01T10:20:42.701Z,1860.00
2023-01-01T10:21:47.250Z,1804.00
2023-01-01T10:22:44.252Z,1728.00
2023-01-01T10:23:45.117Z,1704.00
2023-01-01T10:24:45.969Z,1776.00
2023-01-01T10:25:46.819Z,1868.00
2023-01-01T10:26:47.670Z,1884.00
2023-01-01T10:27:52.477Z,1872.00
2023-01-01T10:28:50.280Z,1840.00
2023-01-01T10:29:50.261Z,1816.00
2023-01-01T10:30:51.082Z,1780.00
2023-01-01T10:31:51.999Z,1772.00
2023-01-01T10:32:52.798Z,1808.00
2023-01-01T10:33:53.939Z,1876.00
2023-01-01T10:34:54.405Z,2012.00
2023-01-01T10:35:55.182Z,2084.00
2023-01-01T10:36:56.034Z,1952.00
2023-01-01T10:37:56.887Z,1796.00
2023-01-01T10:38:57.750Z,1704.00
2023-01-01T10:39:58.603Z,1836.00
2023-01-01T10:40:59.455Z,2080.00
2023-01-01T10:42:00.310Z,2360.00
2023-01-01T10:43:01.200Z,2748.00
2023-01-01T10:44:02.036Z,3108.00
2023-01-01T10:45:02.885Z,3192.00
2023-01-01T10:46:03.786Z,3084.00
2023-01-01T10:47:04.615Z,2852.00
2023-01-01T10:48:05.452Z,2608.00
2023-01-01T10:49:06.310Z,2420.00
2023-01-01T10:50:07.292Z,2328.00
2023-01-01T10:51:08.072Z,2320.00
2023-01-01T10:52:08.930Z,2368.00
2023-01-01T10:53:09.793Z,2460.00
2023-01-01T10:54:10.659Z,2488.00
2023-01-01T10:55:11.516Z,2388.00
2023-01-01T10:56:12.381Z,2284.00
2023-01-01T10:57:13.226Z,2208.00
2023-01-01T10:58:14.079Z,2180.00
2023-01-01T10:59:14.942Z,2160.00
2023-01-01T11:00:15.800Z,2172.00
2023-01-01T11:01:16.813Z,2132.00
2023-01-01T11:02:17.483Z,2104.00
2023-01-01T11:03:17.912Z,2120.00
2023-01-01T11:04:18.960Z,2204.00
2023-01-01T11:05:21.911Z,2376.00
2023-01-01T11:06:20.230Z,2632.00
2023-01-01T11:07:21.096Z,2892.00
2023-01-01T11:08:21.936Z,3052.00
2023-01-01T11:09:22.804Z,3080.00
2023-01-01T11:10:23.661Z,2940.00
2023-01-01T11:11:24.510Z,2772.00
2023-01-01T11:13:03.098Z,2652.00
2023-01-01T11:13:27.115Z,2544.00
2023-01-01T11:14:26.991Z,2440.00
2023-01-01T11:15:27.843Z,2368.00
2023-01-01T11:16:28.765Z,2348.00
2023-01-01T11:17:29.598Z,2376.00
2023-01-01T11:18:30.431Z,2436.00
2023-01-01T11:19:31.285Z,2504.00
2023-01-01T11:20:32.252Z,2488.00
2023-01-01T11:21:33.033Z,2396.00
2023-01-01T11:22:33.887Z,2420.00
2023-01-01T11:23:34.740Z,2400.00
2023-01-01T11:24:35.611Z,2324.00
2023-01-01T11:25:36.456Z,2228.00
2023-01-01T11:26:37.310Z,2152.00
2023-01-01T11:27:38.163Z,2164.00
2023-01-01T11:28:39.019Z,2232.00
2023-01-01T11:29:39.882Z,2224.00
2023-01-01T11:30:40.768Z,2276.00
2023-01-01T11:31:41.592Z,2356.00
2023-01-01T11:32:42.457Z,2436.00
2023-01-01T11:33:43.291Z,2556.00
2023-01-01T11:34:44.159Z,2684.00
2023-01-01T11:35:45.120Z,2760.00
2023-01-01T11:36:45.894Z,2744.00
2023-01-01T11:37:46.746Z,2988.00
2023-01-01T11:38:47.598Z,2952.00
2023-01-01T11:39:48.462Z,2696.00
2023-01-01T11:40:49.321Z,2400.00
2023-01-01T11:41:50.195Z,2160.00
2023-01-01T11:42:51.020Z,2064.00
2023-01-01T11:43:52.781Z,1984.00
2023-01-01T11:44:52.626Z,1932.00
2023-01-01T11:45:53.567Z,1892.00
2023-01-01T11:46:54.387Z,1744.00
2023-01-01T11:47:55.248Z,1640.00
2023-01-01T11:48:56.081Z,1596.00
2023-01-01T11:49:56.947Z,1652.00
2023-01-01T11:50:57.911Z,1652.00
2023-01-01T11:51:58.728Z,1664.00
2023-01-01T11:52:59.584Z,1724.00
2023-01-01T11:54:00.428Z,1724.00
2023-01-01T11:55:01.292Z,1652.00
2023-01-01T11:56:02.152Z,1460.00
2023-01-01T11:57:03.004Z,1224.00
2023-01-01T11:58:03.853Z,1100.00
2023-01-01T11:59:04.709Z,1100.00
2023-01-01T12:00:05.571Z,1196.00
2023-01-01T12:01:06.446Z,1436.00
2023-01-01T12:02:07.332Z,1704.00
2023-01-01T12:03:08.149Z,1816.00
2023-01-01T12:04:09.111Z,1816.00
2023-01-01T12:05:09.949Z,1792.00
2023-01-01T12:06:10.928Z,1756.00
2023-01-01T12:07:11.713Z,1676.00
2023-01-01T12:08:12.565Z,1568.00
2023-01-01T12:09:18.280Z,1476.00
2023-01-01T12:10:15.191Z,1468.00
2023-01-01T12:11:15.033Z,1488.00
2023-01-01T12:12:15.898Z,1452.00
2023-01-01T12:13:16.749Z,1320.00
2023-01-01T12:14:17.596Z,1216.00
2023-01-01T12:15:18.488Z,1216.00
2023-01-01T12:16:19.363Z,1340.00
2023-01-01T12:17:20.201Z,1444.00
2023-01-01T12:18:21.051Z,1496.00
2023-01-01T12:19:21.886Z,1544.00
2023-01-01T12:20:22.750Z,1660.00
2023-01-01T12:21:23.734Z,1864.00
2023-01-01T12:22:24.507Z,1992.00
2023-01-01T12:23:25.372Z,2064.00
2023-01-01T12:24:26.216Z,2172.00
2023-01-01T12:25:27.080Z,2296.00
2023-01-01T12:26:27.938Z,2404.00
2023-01-01T12:27:28.789Z,2500.00
2023-01-01T12:28:29.641Z,2604.00
2023-01-01T12:29:30.498Z,2636.00
2023-01-01T12:30:31.358Z,2572.00
2023-01-01T12:31:32.247Z,2372.00
2023-01-01T12:32:33.068Z,2180.00
2023-01-01T12:33:34.448Z,2144.00
2023-01-01T12:34:34.779Z,2168.00
2023-01-01T12:35:35.651Z,2188.00
2023-01-01T12:36:36.622Z,2160.00
2023-01-01T12:37:37.404Z,2040.00
2023-01-01T12:38:38.255Z,1952.00
2023-01-01T12:39:39.109Z,1864.00
2023-01-01T12:40:39.969Z,1812.00
2023-01-01T12:41:40.837Z,1812.00
2023-01-01T12:42:41.696Z,1884.00
2023-01-01T12:43:42.556Z,2012.00
2023-01-01T12:44:43.429Z,2172.00
2023-01-01T12:45:44.439Z,2324.00
2023-01-01T12:46:44.892Z,2424.00
2023-01-01T12:47:45.711Z,2556.00
2023-01-01T12:48:46.595Z,2652.00
2023-01-01T12:49:47.440Z,2712.00
2023-01-01T12:50:55.033Z,2648.00
2023-01-01T12:51:50.160Z,2560.00
2023-01-01T12:52:49.937Z,2488.00
2023-01-01T12:53:50.812Z,2456.00
2023-01-01T12:54:51.660Z,2524.00
2023-01-01T12:55:52.521Z,2560.00
2023-01-01T12:56:53.372Z,2552.00
2023-01-01T12:57:54.224Z,2476.00
2023-01-01T12:58:55.075Z,2480.00
2023-01-01T12:59:55.948Z,2624.00
2023-01-01T13:00:56.792Z,2668.00
2023-01-01T13:01:57.798Z,2528.00
2023-01-01T13:02:58.739Z,2368.00
2023-01-01T13:03:59.616Z,2256.00